createdAt,value
2019-02-06T00:00:45.078Z,79.54
2019-02-06T00:03:16.498Z,79.16
2019-02-06T00:05:46.257Z,78.60
2019-02-06T00:08:16.077Z,78.84
2019-02-06T00:10:45.912Z,78.61
2019-02-06T00:13:16.250Z,78.68
2019-02-06T00:15:46.124Z,80.38
2019-02-06T00:18:16.096Z,80.99
2019-02-06T00:20:45.894Z,81.45
2019-02-06T00:23:17.753Z,81.27
2019-02-06T00:25:47.531Z,81.92
2019-02-06T00:28:17.360Z,81.64
2019-02-06T00:30:48.226Z,79.56
2019-02-06T00:33:18.025Z,79.57
2019-02-06T00:35:48.752Z,79.26
2019-02-06T00:38:18.557Z,79.59
2019-02-06T00:40:48.249Z,79.37
2019-02-06T00:43:18.067Z,79.93
2019-02-06T00:45:48.936Z,80.62
2019-02-06T00:48:18.766Z,80.41
2019-02-06T00:50:48.552Z,79.79
2019-02-06T00:53:18.352Z,79.54
2019-02-06T00:55:48.612Z,80.47
2019-02-06T00:58:18.432Z,80.11
2019-02-06T01:00:48.237Z,80.18
2019-02-06T01:03:18.845Z,79.55
2019-02-06T01:06:01.059Z,79.25
2019-02-06T01:08:30.851Z,79.58
2019-02-06T01:11:01.022Z,80.01
2019-02-06T01:13:31.652Z,79.94
2019-02-06T01:16:01.394Z,80.70
2019-02-06T01:18:31.209Z,81.73
2019-02-06T01:21:01.054Z,78.90
2019-02-06T01:23:31.298Z,79.34
2019-02-06T01:26:01.561Z,80.11
2019-02-06T01:28:31.474Z,79.83
2019-02-06T01:31:13.272Z,78.91
2019-02-06T01:33:43.074Z,77.66
2019-02-06T01:36:12.863Z,77.65
2019-02-06T01:38:43.613Z,77.74
2019-02-06T01:41:13.403Z,77.99
2019-02-06T01:43:47.001Z,78.19
2019-02-06T01:46:16.795Z,78.30
2019-02-06T01:48:46.596Z,79.53
2019-02-06T01:51:27.434Z,79.65
2019-02-06T01:54:00.957Z,79.75
2019-02-06T01:56:30.736Z,80.20
2019-02-06T01:59:00.570Z,81.74
2019-02-06T02:01:30.738Z,81.43
2019-02-06T02:04:00.534Z,78.97
2019-02-06T02:06:30.440Z,77.69
2019-02-06T02:09:08.895Z,77.45
2019-02-06T02:11:38.685Z,78.76
2019-02-06T02:14:08.506Z,78.09
2019-02-06T02:16:47.588Z,78.01
2019-02-06T02:19:20.745Z,78.72
2019-02-06T02:21:58.142Z,78.61
2019-02-06T02:24:38.824Z,78.84
2019-02-06T02:27:22.675Z,78.09
2019-02-06T02:30:00.814Z,77.89
2019-02-06T02:32:30.618Z,78.11
2019-02-06T02:35:00.588Z,79.13
2019-02-06T02:37:30.414Z,79.58
2019-02-06T02:40:00.477Z,79.35
2019-02-06T02:48:34.107Z,80.21
2019-02-06T02:51:10.299Z,79.39
2019-02-06T02:53:51.896Z,79.00
2019-02-06T02:56:36.878Z,79.55
2019-02-06T02:59:13.212Z,78.46
2019-02-06T03:04:58.919Z,78.33
2019-02-06T03:07:36.829Z,78.52
2019-02-06T03:16:20.682Z,82.01
2019-02-06T03:22:08.129Z,81.07
2019-02-06T03:30:53.873Z,81.09
2019-02-06T03:33:34.515Z,80.03
2019-02-06T03:36:40.514Z,79.60
2019-02-06T03:42:28.123Z,79.91
2019-02-06T03:48:05.362Z,80.23
2019-02-06T03:50:58.089Z,80.25
2019-02-06T03:56:48.525Z,79.89
2019-02-06T03:59:34.304Z,81.53
2019-02-06T04:02:19.257Z,80.84
2019-02-06T04:05:04.561Z,81.39
2019-02-06T04:13:43.214Z,81.91
2019-02-06T04:16:16.046Z,80.19
2019-02-06T04:18:45.944Z,78.81
2019-02-06T04:21:18.618Z,78.31
2019-02-06T04:23:54.640Z,78.58
2019-02-06T04:26:25.039Z,79.01
2019-02-06T04:28:57.525Z,79.28
2019-02-06T04:31:28.495Z,79.57
2019-02-06T04:33:58.588Z,79.97
2019-02-06T04:36:31.979Z,80.39
2019-02-06T04:39:05.595Z,81.27
2019-02-06T04:41:37.472Z,81.01
2019-02-06T04:44:08.621Z,79.92
2019-02-06T04:46:44.460Z,78.96
2019-02-06T04:49:16.826Z,78.19
2019-02-06T04:51:47.029Z,78.17
2019-02-06T04:54:19.561Z,78.10
2019-02-06T04:56:50.375Z,77.47
2019-02-06T04:59:21.811Z,77.60
2019-02-06T05:01:51.694Z,77.55
2019-02-06T05:04:21.543Z,77.51
2019-02-06T05:06:52.815Z,78.69
2019-02-06T05:09:24.551Z,79.79
2019-02-06T05:11:55.984Z,81.28
2019-02-06T05:14:27.127Z,81.19
2019-02-06T05:16:58.589Z,81.02
2019-02-06T05:19:28.454Z,81.63
2019-02-06T05:22:00.350Z,81.08
2019-02-06T05:24:30.649Z,81.13
2019-02-06T05:27:03.265Z,80.54
2019-02-06T05:29:33.432Z,80.50
2019-02-06T05:32:06.129Z,81.57
2019-02-06T05:34:37.090Z,81.59
2019-02-06T05:37:10.007Z,81.79
2019-02-06T05:39:42.404Z,82.41
2019-02-06T05:42:14.852Z,82.75
2019-02-06T05:44:45.993Z,82.24
2019-02-06T05:47:15.817Z,81.54
2019-02-06T05:49:45.474Z,80.99
2019-02-06T05:52:17.159Z,80.17
2019-02-06T05:54:48.930Z,79.29
2019-02-06T05:57:18.750Z,79.11
2019-02-06T05:59:51.227Z,78.93
2019-02-06T06:02:26.043Z,78.61
2019-02-06T06:04:56.102Z,78.50
2019-02-06T06:07:25.937Z,78.65
2019-02-06T06:09:55.940Z,78.14
2019-02-06T06:12:25.791Z,78.57
2019-02-06T06:14:57.265Z,78.20
2019-02-06T06:17:27.810Z,78.81
2019-02-06T06:19:57.627Z,90.53
2019-02-06T06:22:27.653Z,77.15
2019-02-06T06:24:57.455Z,71.96
2019-02-06T06:27:27.252Z,69.91
2019-02-06T06:29:57.094Z,66.78
2019-02-06T06:32:27.317Z,65.90
2019-02-06T06:34:57.102Z,67.70
2019-02-06T06:37:26.907Z,69.12
2019-02-06T06:39:56.738Z,70.85
2019-02-06T06:42:30.906Z,72.91
2019-02-06T06:45:01.148Z,73.74
2019-02-06T06:47:30.990Z,73.48
2019-02-06T06:50:00.800Z,73.72
2019-02-06T06:52:30.612Z,73.74
2019-02-06T06:55:00.416Z,73.63
2019-02-06T06:57:30.324Z,73.72
2019-02-06T07:00:00.502Z,73.31
2019-02-06T07:02:32.311Z,73.96
2019-02-06T07:05:02.222Z,73.77
2019-02-06T07:07:32.021Z,73.48
2019-02-06T07:10:01.812Z,73.54
2019-02-06T07:12:31.625Z,73.01
2019-02-06T07:15:01.668Z,70.17
2019-02-06T07:17:31.450Z,71.00
2019-02-06T07:20:01.298Z,71.02
2019-02-06T07:22:31.092Z,70.91
2019-02-06T07:25:00.945Z,70.89
2019-02-06T07:27:30.615Z,70.89
2019-02-06T07:30:00.283Z,70.73
2019-02-06T07:32:30.434Z,70.73
2019-02-06T07:35:00.328Z,70.66
2019-02-06T07:37:30.075Z,70.66
2019-02-06T07:39:59.970Z,71.59
2019-02-06T07:42:29.801Z,71.60
2019-02-06T07:45:01.079Z,71.54
2019-02-06T07:47:31.088Z,69.88
2019-02-06T07:50:00.927Z,69.11
2019-02-06T07:52:30.832Z,68.55
2019-02-06T07:55:00.646Z,68.55
2019-02-06T07:57:32.268Z,70.04
2019-02-06T08:00:02.090Z,70.04
2019-02-06T08:02:31.972Z,69.87
2019-02-06T08:05:01.796Z,70.61
2019-02-06T08:07:31.623Z,69.86
2019-02-06T08:10:01.426Z,69.86
2019-02-06T08:12:31.695Z,69.55
2019-02-06T08:15:01.457Z,68.71
2019-02-06T08:17:31.261Z,69.37
2019-02-06T08:20:01.056Z,67.27
2019-02-06T08:22:30.880Z,66.54
2019-02-06T08:25:00.683Z,67.23
2019-02-06T08:27:31.843Z,67.69
2019-02-06T08:30:01.709Z,66.37
2019-02-06T08:32:31.474Z,66.31
2019-02-06T08:35:01.283Z,66.47
2019-02-06T08:37:31.054Z,65.77
2019-02-06T08:40:02.667Z,64.70
2019-02-06T08:42:32.447Z,64.70
2019-02-06T08:45:02.242Z,64.24
2019-02-06T08:47:32.061Z,64.01
2019-02-06T08:50:01.891Z,62.71
2019-02-06T08:52:31.659Z,61.31
2019-02-06T08:55:01.444Z,61.67
2019-02-06T08:57:31.361Z,61.10
2019-02-06T09:00:01.298Z,59.98
2019-02-06T09:02:31.879Z,58.68
2019-02-06T09:05:01.683Z,58.08
2019-02-06T09:07:33.352Z,56.89
2019-02-06T09:10:04.250Z,56.26
2019-02-06T09:12:34.002Z,55.53
2019-02-06T09:15:04.680Z,55.12
2019-02-06T09:17:34.533Z,54.86
2019-02-06T09:20:07.365Z,54.41
2019-02-06T09:22:37.214Z,54.13
2019-02-06T09:25:10.406Z,55.55
2019-02-06T09:27:40.615Z,54.27
2019-02-06T09:30:28.689Z,54.86
2019-02-06T09:32:58.547Z,54.84
2019-02-06T09:35:28.371Z,54.49
2019-02-06T09:37:58.276Z,54.13
2019-02-06T09:40:29.761Z,54.33
2019-02-06T09:42:59.527Z,53.57
2019-02-06T09:45:29.667Z,53.34
2019-02-06T09:48:00.833Z,53.66
2019-02-06T09:50:32.823Z,53.36
2019-02-06T09:53:03.240Z,53.67
2019-02-06T09:55:33.025Z,53.03
2019-02-06T09:58:03.081Z,53.05
2019-02-06T10:00:37.754Z,52.82
2019-02-06T10:03:08.052Z,54.09
2019-02-06T10:05:37.909Z,53.55
2019-02-06T10:08:07.722Z,53.13
2019-02-06T10:10:37.338Z,52.62
2019-02-06T10:13:07.240Z,52.08
2019-02-06T10:15:38.850Z,51.44
2019-02-06T10:18:11.037Z,51.66
2019-02-06T10:20:43.666Z,52.60
2019-02-06T10:23:13.615Z,52.11
2019-02-06T10:25:43.406Z,51.96
2019-02-06T10:28:14.121Z,51.12
2019-02-06T10:30:46.409Z,51.12
2019-02-06T10:33:18.902Z,50.66
2019-02-06T10:35:51.894Z,49.49
2019-02-06T10:38:21.193Z,49.32
2019-02-06T10:40:51.012Z,49.09
2019-02-06T10:43:31.683Z,49.80
2019-02-06T10:45:53.892Z,50.10
2019-02-06T10:48:24.355Z,49.68
2019-02-06T10:50:54.310Z,49.90
2019-02-06T10:53:24.959Z,50.94
2019-02-06T10:55:55.100Z,51.56
2019-02-06T10:58:24.910Z,50.98
2019-02-06T11:00:57.513Z,50.62
2019-02-06T11:03:28.085Z,50.04
2019-02-06T11:05:57.911Z,50.17
2019-02-06T11:08:27.704Z,50.55
2019-02-06T11:10:58.190Z,49.27
2019-02-06T11:13:28.009Z,49.56
2019-02-06T11:15:57.857Z,49.43
2019-02-06T11:18:29.451Z,50.01
2019-02-06T11:20:59.198Z,49.94
2019-02-06T11:23:28.964Z,50.18
2019-02-06T11:25:59.344Z,50.18
2019-02-06T11:28:30.293Z,50.56
2019-02-06T11:31:00.223Z,50.22
2019-02-06T11:33:30.021Z,51.12
2019-02-06T11:36:00.326Z,50.83
2019-02-06T11:38:31.064Z,50.66
2019-02-06T11:41:00.889Z,50.61
2019-02-06T11:43:32.164Z,49.81
2019-02-06T11:46:03.185Z,49.49
2019-02-06T11:48:32.990Z,49.58
2019-02-06T11:51:04.335Z,49.72
2019-02-06T11:53:34.414Z,49.01
2019-02-06T11:56:04.822Z,49.44
2019-02-06T11:58:34.956Z,49.36
2019-02-06T12:01:16.666Z,48.13
2019-02-06T12:03:47.276Z,47.48
2019-02-06T12:06:18.678Z,47.52
2019-02-06T12:08:50.629Z,47.38
2019-02-06T12:11:21.254Z,47.69
2019-02-06T12:13:51.139Z,47.97
2019-02-06T12:16:20.989Z,48.37
2019-02-06T12:18:51.966Z,48.35
2019-02-06T12:21:23.342Z,48.40
2019-02-06T12:23:54.166Z,48.67
2019-02-06T12:26:23.947Z,48.53
2019-02-06T12:28:53.959Z,48.47
2019-02-06T12:31:25.753Z,48.40
2019-02-06T12:33:57.169Z,48.33
2019-02-06T12:36:27.060Z,48.42
2019-02-06T12:38:56.844Z,48.75
2019-02-06T12:41:28.364Z,48.73
2019-02-06T12:43:58.134Z,48.98
2019-02-06T12:46:27.905Z,49.10
2019-02-06T12:48:57.713Z,49.51
2019-02-06T12:51:28.550Z,49.67
2019-02-06T12:53:58.322Z,49.83
2019-02-06T12:56:28.115Z,49.98
2019-02-06T12:58:57.904Z,50.68
2019-02-06T13:01:27.714Z,50.97
2019-02-06T13:03:57.459Z,50.89
2019-02-06T13:06:27.240Z,51.31
2019-02-06T13:08:57.026Z,51.13
2019-02-06T13:11:26.809Z,50.99
2019-02-06T13:13:56.768Z,51.17
2019-02-06T13:16:26.598Z,51.37
2019-02-06T13:18:56.388Z,51.46
2019-02-06T13:21:26.187Z,51.62
2019-02-06T13:23:55.966Z,51.77
2019-02-06T13:26:25.801Z,51.77
2019-02-06T13:28:55.886Z,52.19
2019-02-06T13:31:25.690Z,52.41
2019-02-06T13:33:55.508Z,52.12
2019-02-06T13:36:25.306Z,52.33
2019-02-06T13:38:55.918Z,52.85
2019-02-06T13:41:25.720Z,52.15
2019-02-06T13:43:55.486Z,52.26
2019-02-06T13:46:25.273Z,52.41
2019-02-06T13:48:55.332Z,52.53
2019-02-06T13:51:25.346Z,51.79
2019-02-06T13:53:55.159Z,51.58
2019-02-06T13:56:24.933Z,51.48
2019-02-06T13:58:54.691Z,51.79
2019-02-06T14:01:26.194Z,51.96
2019-02-06T14:03:56.173Z,51.98
2019-02-06T14:06:26.222Z,51.92
2019-02-06T14:08:56.002Z,52.17
2019-02-06T14:11:25.831Z,52.26
2019-02-06T14:13:55.655Z,52.63
2019-02-06T14:16:27.181Z,52.81
2019-02-06T14:18:57.106Z,53.18
2019-02-06T14:21:27.017Z,53.68
2019-02-06T14:24:00.613Z,54.01
2019-02-06T14:26:36.335Z,54.25
2019-02-06T14:29:24.467Z,54.12
2019-02-06T14:32:27.987Z,54.44
2019-02-06T14:35:00.823Z,54.60
2019-02-06T14:37:37.736Z,54.81
2019-02-06T14:40:19.747Z,54.61
2019-02-06T14:43:13.234Z,54.59
2019-02-06T14:45:57.596Z,54.82
2019-02-06T14:48:45.328Z,54.00
2019-02-06T14:51:27.108Z,54.51
2019-02-06T14:54:15.150Z,54.29
2019-02-06T14:56:57.660Z,54.00
2019-02-06T14:59:35.936Z,54.13
2019-02-06T15:02:28.102Z,54.82
2019-02-06T15:05:20.488Z,55.71
2019-02-06T15:07:57.074Z,56.41
2019-02-06T15:10:38.712Z,56.62
2019-02-06T15:13:29.548Z,56.92
2019-02-06T15:16:14.158Z,57.31
2019-02-06T15:18:50.079Z,57.21
2019-02-06T15:21:38.054Z,57.70
2019-02-06T15:24:29.309Z,58.22
2019-02-06T15:27:26.317Z,58.53
2019-02-06T15:30:02.110Z,58.76
2019-02-06T15:32:34.906Z,58.93
2019-02-06T15:35:23.044Z,59.31
2019-02-06T15:37:56.233Z,59.63
2019-02-06T15:40:34.903Z,60.12
2019-02-06T15:43:29.669Z,60.28
2019-02-06T15:46:17.514Z,60.53
2019-02-06T15:49:09.748Z,60.81
2019-02-06T15:51:48.337Z,61.19
2019-02-06T15:54:32.717Z,61.52
2019-02-06T15:57:05.619Z,61.78
2019-02-06T16:00:05.268Z,62.11
2019-02-06T16:02:54.430Z,62.39
2019-02-06T16:05:29.237Z,62.79
2019-02-06T16:08:18.462Z,63.29
2019-02-06T16:11:00.191Z,63.53
2019-02-06T16:13:49.366Z,63.55
2019-02-06T16:16:43.277Z,63.64
2019-02-06T16:19:37.137Z,63.90
2019-02-06T16:22:27.867Z,64.41
2019-02-06T16:25:19.072Z,64.84
2019-02-06T16:27:51.923Z,64.94
2019-02-06T16:30:33.644Z,70.50
2019-02-06T16:33:09.162Z,68.04
2019-02-06T16:36:10.825Z,66.29
2019-02-06T16:38:49.609Z,64.63
2019-02-06T16:41:53.002Z,64.42
2019-02-06T16:44:23.983Z,64.53
2019-02-06T16:47:19.015Z,64.20
2019-02-06T16:49:58.202Z,64.84
2019-02-06T16:52:38.249Z,65.49
2019-02-06T16:55:16.925Z,66.31
2019-02-06T16:58:07.676Z,66.54
2019-02-06T17:00:43.573Z,66.91
2019-02-06T17:03:25.457Z,67.32
2019-02-06T17:06:11.921Z,67.25
2019-02-06T17:09:02.632Z,67.32
2019-02-06T17:12:04.163Z,67.48
2019-02-06T17:14:36.995Z,68.14
2019-02-06T17:17:15.412Z,68.39
2019-02-06T17:20:13.919Z,68.30
2019-02-06T17:23:05.150Z,70.60
2019-02-06T17:25:49.843Z,68.18
2019-02-06T17:28:28.646Z,65.02
2019-02-06T17:31:11.733Z,65.45
2019-02-06T17:33:47.860Z,66.24
2019-02-06T17:36:45.031Z,66.89
2019-02-06T17:39:37.082Z,67.47
2019-02-06T17:42:24.846Z,68.64
2019-02-06T17:45:23.301Z,68.79
2019-02-06T17:48:05.546Z,69.20
2019-02-06T17:51:01.366Z,69.88
2019-02-06T17:53:40.035Z,69.88
2019-02-06T17:56:09.903Z,69.83
2019-02-06T17:58:40.110Z,69.29
2019-02-06T18:01:19.552Z,69.78
2019-02-06T18:03:50.294Z,69.99
2019-02-06T18:06:20.104Z,70.50
2019-02-06T18:08:56.706Z,70.50
2019-02-06T18:11:22.469Z,70.62
2019-02-06T18:13:52.718Z,71.08
2019-02-06T18:16:23.191Z,71.30
2019-02-06T18:18:52.992Z,71.40
2019-02-06T18:21:22.974Z,71.14
2019-02-06T18:23:52.817Z,71.32
2019-02-06T18:26:24.905Z,71.59
2019-02-06T18:28:55.442Z,71.91
2019-02-06T18:31:25.215Z,71.48
2019-02-06T18:33:55.474Z,71.24
2019-02-06T18:36:25.284Z,71.77
2019-02-06T18:38:55.077Z,72.14
2019-02-06T18:41:25.342Z,71.48
2019-02-06T18:43:55.598Z,71.85
2019-02-06T18:46:25.556Z,72.18
2019-02-06T18:48:55.439Z,76.87
2019-02-06T18:51:25.303Z,72.85
2019-02-06T18:53:55.150Z,65.92
2019-02-06T18:56:25.453Z,66.98
2019-02-06T18:58:55.265Z,68.07
2019-02-06T19:01:25.583Z,69.44
2019-02-06T19:03:55.546Z,70.56
2019-02-06T19:06:25.808Z,71.14
2019-02-06T19:08:55.710Z,71.53
2019-02-06T19:11:25.529Z,72.26
2019-02-06T19:13:55.389Z,72.90
2019-02-06T19:16:25.840Z,73.24
2019-02-06T19:18:55.852Z,72.68
2019-02-06T19:21:27.659Z,72.83
2019-02-06T19:23:59.042Z,72.78
2019-02-06T19:26:29.362Z,73.32
2019-02-06T19:28:59.628Z,73.39
2019-02-06T19:31:32.547Z,74.64
2019-02-06T19:34:02.834Z,74.64
2019-02-06T19:36:32.750Z,75.16
2019-02-06T19:39:02.609Z,75.03
2019-02-06T19:41:32.986Z,74.48
2019-02-06T19:44:02.906Z,74.48
2019-02-06T19:46:32.874Z,74.74
2019-02-06T19:49:03.672Z,75.64
2019-02-06T19:51:33.572Z,75.73
2019-02-06T19:54:03.875Z,75.30
2019-02-06T19:56:33.787Z,75.30
2019-02-06T19:59:03.899Z,75.72
2019-02-06T20:01:34.174Z,75.74
2019-02-06T20:04:04.755Z,75.18
2019-02-06T20:06:35.507Z,76.27
2019-02-06T20:09:07.243Z,76.51
2019-02-06T20:11:37.204Z,76.35
2019-02-06T20:14:07.571Z,76.35
2019-02-06T20:16:37.667Z,76.24
2019-02-06T20:19:08.943Z,76.82
2019-02-06T20:21:39.306Z,72.63
2019-02-06T20:24:10.832Z,72.63
2019-02-06T20:26:40.724Z,72.76
2019-02-06T20:29:11.475Z,73.26
2019-02-06T20:31:41.346Z,74.87
2019-02-06T20:34:11.377Z,75.05
2019-02-06T20:36:41.788Z,75.00
2019-02-06T20:39:11.740Z,75.19
2019-02-06T20:41:41.728Z,75.19
2019-02-06T20:44:12.142Z,75.56
2019-02-06T20:46:42.088Z,75.41
2019-02-06T20:49:12.468Z,75.41
2019-02-06T20:51:43.569Z,75.62
2019-02-06T20:54:13.745Z,75.62
2019-02-06T20:56:44.165Z,76.43
2019-02-06T20:59:14.095Z,76.43
2019-02-06T21:01:44.370Z,77.12
2019-02-06T21:04:15.438Z,77.12
2019-02-06T21:06:45.781Z,77.64
2019-02-06T21:09:16.211Z,76.94
2019-02-06T21:11:46.066Z,76.30
2019-02-06T21:14:15.905Z,76.14
2019-02-06T21:16:45.714Z,76.27
2019-02-06T21:19:15.535Z,76.53
2019-02-06T21:21:45.350Z,76.49
2019-02-06T21:24:15.174Z,76.25
2019-02-06T21:26:44.962Z,76.15
2019-02-06T21:29:14.801Z,76.50
2019-02-06T21:31:44.640Z,77.17
2019-02-06T21:34:14.488Z,77.17
2019-02-06T21:36:44.399Z,77.36
2019-02-06T21:39:14.224Z,77.47
2019-02-06T21:41:44.995Z,78.34
2019-02-06T21:44:14.968Z,79.29
2019-02-06T21:46:44.781Z,78.90
2019-02-06T21:49:14.546Z,78.76
2019-02-06T21:51:44.769Z,78.91
2019-02-06T21:54:14.696Z,79.37
2019-02-06T21:56:44.486Z,80.08
2019-02-06T21:59:15.327Z,80.32
2019-02-06T22:01:45.100Z,80.32
2019-02-06T22:04:14.900Z,79.52
2019-02-06T22:06:45.014Z,78.49
2019-02-06T22:09:14.826Z,77.12
2019-02-06T22:11:45.681Z,76.92
2019-02-06T22:14:15.389Z,76.92
2019-02-06T22:16:45.267Z,77.17
2019-02-06T22:19:15.316Z,76.95
2019-02-06T22:21:45.072Z,77.17
2019-02-06T22:24:14.839Z,77.48
2019-02-06T22:26:44.637Z,76.72
2019-02-06T22:29:14.342Z,76.63
2019-02-06T22:31:44.168Z,77.08
2019-02-06T22:34:14.215Z,77.00
2019-02-06T22:36:44.061Z,77.84
2019-02-06T22:39:13.854Z,78.10
2019-02-06T22:41:43.660Z,77.90
2019-02-06T22:44:13.439Z,78.07
2019-02-06T22:46:43.232Z,77.95
2019-02-06T22:49:13.281Z,78.23
2019-02-06T22:51:43.091Z,78.29
2019-02-06T22:54:12.890Z,78.13
2019-02-06T22:56:42.694Z,77.91
2019-02-06T22:59:12.480Z,77.54
2019-02-06T23:01:42.693Z,77.46
2019-02-06T23:04:12.576Z,77.29
2019-02-06T23:06:42.374Z,77.67
2019-02-06T23:09:12.286Z,77.85
2019-02-06T23:11:42.068Z,77.70
2019-02-06T23:14:17.528Z,77.55
2019-02-06T23:16:43.361Z,77.83
2019-02-06T23:19:13.077Z,77.68
2019-02-06T23:21:42.888Z,77.46
2019-02-06T23:24:12.608Z,77.50
2019-02-06T23:26:42.419Z,77.33
2019-02-06T23:29:12.242Z,77.15
2019-02-06T23:31:42.176Z,77.14
2019-02-06T23:34:12.063Z,77.26
2019-02-06T23:36:41.913Z,77.37
2019-02-06T23:39:14.089Z,77.47
2019-02-06T23:41:44.054Z,77.53
2019-02-06T23:44:14.290Z,77.37
2019-02-06T23:46:44.087Z,77.69
2019-02-06T23:49:13.954Z,77.88
2019-02-06T23:51:43.726Z,77.85
2019-02-06T23:54:16.305Z,77.55
2019-02-06T23:56:46.098Z,77.93
2019-02-06T23:59:15.975Z,77.77
